Time;durP1;ratioP1;P1;durP2;ratioP2;P2;SDS_P1;SDS_P2;PMS_P1;PMS_P2;Temp;Humidity;BMP_temperature;BMP_pressure;BME280_temperature;BME280_humidity;BME280_pressure;Samples;Min_cycle;Max_cycle;Signal;HPM_P1;HPM_P2
2022/08/16 00:01:25;;;;;;;12.80;10.10;;;;;;;20.20;90.70;99904.70;106758;1274;60386;-85
2022/08/16 00:04:00;;;;;;;11.60;9.90;;;;;;;20.19;90.60;99900.94;105813;1276;73444;-85
2022/08/16 00:06:30;;;;;;;12.90;9.90;;;;;;;20.19;90.55;99895.28;106172;1276;71188;-84
2022/08/16 00:08:58;;;;;;;13.30;10.20;;;;;;;20.19;90.53;99892.21;106514;1276;73266;-85
2022/08/16 00:11:25;;;;;;;12.70;10.10;;;;;;;20.20;90.42;99888.39;105970;1276;63009;-83
2022/08/16 00:13:52;;;;;;;11.80;10.10;;;;;;;20.20;90.28;99883.48;105554;1276;60580;-85
2022/08/16 00:16:23;;;;;;;13.10;10.20;;;;;;;20.19;90.12;99883.69;106740;1276;73969;-84
2022/08/16 00:19:12;;;;;;;10.50;9.40;;;;;;;20.18;90.17;99880.66;106180;1276;71632;-84
2022/08/16 00:21:40;;;;;;;11.70;9.70;;;;;;;20.18;90.13;99885.09;106023;1276;72608;-84
2022/08/16 00:24:08;;;;;;;11.20;10.00;;;;;;;20.18;89.94;99884.55;105933;1276;62734;-84
2022/08/16 00:26:40;;;;;;;12.90;9.90;;;;;;;20.16;89.87;99883.77;106053;1276;60988;-84
2022/08/16 00:29:13;;;;;;;10.80;9.70;;;;;;;20.14;89.91;99881.61;106307;1276;74012;-84
2022/08/16 00:31:45;;;;;;;12.00;10.20;;;;;;;20.11;89.96;99883.05;106075;1276;71438;-84
2022/08/16 00:34:28;;;;;;;11.40;9.90;;;;;;;20.07;90.15;99884.36;106003;1276;71904;-83
2022/08/16 00:37:12;;;;;;;13.90;10.60;;;;;;;20.03;90.11;99889.60;106642;1276;63236;-83
2022/08/16 00:39:45;;;;;;;12.10;10.50;;;;;;;19.97;90.11;99894.94;106956;1276;60489;-85
2022/08/16 00:42:14;;;;;;;13.30;11.10;;;;;;;19.93;90.00;99898.56;105865;1276;74139;-84
2022/08/16 00:45:02;;;;;;;12.40;10.60;;;;;;;19.87;90.27;99899.61;106499;1276;71216;-84
2022/08/16 00:47:34;;;;;;;12.30;10.40;;;;;;;19.84;90.42;99900.80;105888;1276;73581;-85
2022/08/16 00:50:04;;;;;;;13.00;10.50;;;;;;;19.80;90.45;99898.78;106668;1276;61574;-85
2022/08/16 00:52:38;;;;;;;14.00;11.00;;;;;;;19.76;90.37;99897.39;105411;1276;61113;-84
2022/08/16 00:55:19;;;;;;;15.80;11.60;;;;;;;19.72;90.37;99900.33;107047;1276;74206;-84
2022/08/16 00:57:49;;;;;;;15.80;11.40;;;;;;;19.69;90.45;99899.20;105798;1276;69110;-86
2022/08/16 01:00:27;;;;;;;13.60;11.70;;;;;;;19.65;90.63;99900.23;106169;1276;72914;-86
2022/08/16 01:02:56;;;;;;;12.60;11.30;;;;;;;19.58;91.30;99903.66;105947;1276;63183;-85
2022/08/16 01:05:24;;;;;;;12.60;11.30;;;;;;;19.51;91.55;99900.63;106227;1276;60507;-83
2022/08/16 01:07:53;;;;;;;13.20;11.10;;;;;;;19.45;91.80;99898.73;106126;1276;74113;-84
2022/08/16 01:10:23;;;;;;;13.40;11.30;;;;;;;19.40;91.93;99897.98;106628;1276;71689;-83
2022/08/16 01:13:12;;;;;;;13.60;11.50;;;;;;;19.35;91.95;99897.52;106317;1276;72877;-84
2022/08/16 01:15:45;;;;;;;16.60;12.20;;;;;;;19.30;92.13;99891.80;106016;1276;63099;-84
2022/08/16 01:18:22;;;;;;;12.50;11.20;;;;;;;19.27;92.37;99892.30;105991;1276;61912;-84
2022/08/16 01:21:45;;;;;;;13.20;11.60;;;;;;;19.26;92.25;99889.70;105723;1276;74377;-84
2022/08/16 01:24:18;;;;;;;15.10;12.60;;;;;;;19.25;92.35;99893.61;106305;1276;72130;-84
2022/08/16 01:27:16;;;;;;;14.50;12.30;;;;;;;19.23;92.24;99896.94;106144;1276;75947;-84
2022/08/16 01:29:53;;;;;;;16.30;12.30;;;;;;;19.22;92.38;99900.90;106200;1276;62304;-84
2022/08/16 01:32:26;;;;;;;15.10;11.90;;;;;;;19.20;92.50;99907.45;105864;1276;60719;-84
2022/08/16 01:35:02;;;;;;;14.60;12.00;;;;;;;19.20;92.55;99908.56;106271;1276;74169;-84
2022/08/16 01:37:48;;;;;;;16.00;12.30;;;;;;;19.20;92.47;99913.41;106261;1276;72552;-84
2022/08/16 01:40:24;;;;;;;13.40;11.90;;;;;;;19.21;92.40;99920.03;105861;1276;71722;-84
2022/08/16 01:42:53;;;;;;;15.90;12.10;;;;;;;19.22;92.28;99925.56;106138;1276;62792;-84
2022/08/16 01:45:23;;;;;;;15.50;11.90;;;;;;;19.22;92.14;99923.52;106038;1276;60729;-84
2022/08/16 01:48:06;;;;;;;15.00;11.60;;;;;;;19.22;91.89;99921.66;106237;1276;74173;-83
2022/08/16 01:50:49;;;;;;;13.70;11.80;;;;;;;19.22;91.84;99923.76;105910;1276;71498;-84
2022/08/16 01:53:36;;;;;;;15.40;12.20;;;;;;;19.21;91.83;99924.59;106354;1276;72927;-84
2022/08/16 01:56:07;;;;;;;16.70;12.60;;;;;;;19.19;91.58;99927.55;105838;1276;62416;-83
2022/08/16 01:58:49;;;;;;;13.50;11.90;;;;;;;19.20;91.59;99928.67;105720;1276;61584;-86
2022/08/16 02:01:17;;;;;;;15.60;12.30;;;;;;;19.20;91.52;99935.08;105776;1276;73946;-84
2022/08/16 02:03:44;;;;;;;14.60;11.90;;;;;;;19.20;91.27;99934.48;106822;1277;69370;-84
2022/08/16 02:06:18;;;;;;;13.20;11.80;;;;;;;19.19;91.32;99932.85;106055;1276;73098;-84
2022/08/16 02:09:02;;;;;;;19.10;12.60;;;;;;;19.18;91.26;99931.35;106216;1276;62074;-83
2022/08/16 02:11:31;;;;;;;14.10;11.50;;;;;;;19.16;91.14;99926.64;107202;1276;62002;-84
2022/08/16 02:14:19;;;;;;;15.50;12.20;;;;;;;19.15;91.14;99936.04;106581;1276;74144;-84
2022/08/16 02:16:47;;;;;;;16.50;12.40;;;;;;;19.13;91.35;99936.02;105736;1277;72722;-84
2022/08/16 02:19:17;;;;;;;16.00;12.40;;;;;;;19.11;91.27;99935.83;105272;1276;74341;-85
2022/08/16 02:21:51;;;;;;;13.40;12.00;;;;;;;19.10;91.37;99931.55;106428;1276;60957;-84
2022/08/16 02:24:40;;;;;;;15.00;12.00;;;;;;;19.08;91.23;99934.09;106159;1276;63712;-84
2022/08/16 02:27:12;;;;;;;16.30;12.60;;;;;;;19.07;91.15;99932.45;106424;1276;74910;-84
2022/08/16 02:29:41;;;;;;;13.70;11.80;;;;;;;19.06;91.09;99935.13;105439;1276;71895;-84
2022/08/16 02:32:14;;;;;;;16.20;13.30;;;;;;;19.06;91.11;99935.66;106494;1274;74016;-83
2022/08/16 02:35:01;;;;;;;16.50;12.50;;;;;;;19.02;91.07;99936.33;105999;1276;63950;-84
2022/08/16 02:37:28;;;;;;;16.90;12.60;;;;;;;19.00;91.19;99937.14;105927;1277;60559;-83
2022/08/16 02:40:15;;;;;;;16.70;12.90;;;;;;;18.97;91.21;99936.71;106328;1276;75518;-84
2022/08/16 02:42:47;;;;;;;14.80;12.70;;;;;;;18.95;91.25;99932.99;106105;1276;71378;-84
2022/08/16 02:45:19;;;;;;;15.90;12.10;;;;;;;18.93;91.35;99932.11;106113;1277;72971;-85
2022/08/16 02:47:54;;;;;;;13.50;12.00;;;;;;;18.92;91.30;99935.52;105470;1277;62212;-84
2022/08/16 02:50:41;;;;;;;14.80;12.60;;;;;;;18.90;91.13;99936.36;106351;1276;62319;-84
2022/08/16 02:53:28;;;;;;;16.00;12.30;;;;;;;18.89;91.07;99939.37;106184;1276;75598;-84
2022/08/16 02:55:57;;;;;;;17.20;13.10;;;;;;;18.88;90.98;99945.36;106556;1276;72157;-86
2022/08/16 02:58:27;;;;;;;17.60;12.60;;;;;;;18.85;91.03;99947.16;106371;1276;72207;-83
2022/08/16 03:00:56;;;;;;;17.20;12.90;;;;;;;18.83;91.19;99945.04;106364;1277;61984;-83
2022/08/16 03:03:25;;;;;;;14.50;12.50;;;;;;;18.81;91.15;99947.21;105830;1278;60488;-84
2022/08/16 03:06:13;;;;;;;14.30;12.70;;;;;;;18.79;91.08;99947.77;105527;1276;77587;-85
2022/08/16 03:09:01;;;;;;;17.50;13.50;;;;;;;18.75;90.99;99943.60;106981;1275;74798;-86
2022/08/16 03:11:30;;;;;;;15.70;13.20;;;;;;;18.73;91.01;99941.86;106764;1276;72865;-85
2022/08/16 03:14:01;;;;;;;14.10;12.60;;;;;;;18.71;91.10;99935.43;106850;1276;64715;-88
2022/08/16 03:16:33;;;;;;;16.20;13.00;;;;;;;18.70;91.22;99935.52;106321;1276;60555;-86
2022/08/16 03:19:08;;;;;;;15.60;13.70;;;;;;;18.69;91.21;99934.34;107109;1276;74181;-85
2022/08/16 03:21:36;;;;;;;17.10;13.80;;;;;;;18.68;91.33;99931.14;106774;1276;73047;-85
2022/08/16 03:24:06;;;;;;;15.80;12.80;;;;;;;18.67;91.23;99933.13;106829;1276;72982;-85
2022/08/16 03:26:53;;;;;;;14.60;13.10;;;;;;;18.65;91.18;99930.63;107966;1276;63847;-85
2022/08/16 03:29:30;;;;;;;16.10;13.30;;;;;;;18.63;91.05;99932.59;108344;1276;60504;-84
2022/08/16 03:31:58;;;;;;;15.50;13.20;;;;;;;18.61;90.92;99928.64;108350;1276;74280;-84
2022/08/16 03:34:32;;;;;;;15.10;13.00;;;;;;;18.58;91.13;99920.70;108233;1276;72548;-84
2022/08/16 03:36:59;;;;;;;15.40;13.20;;;;;;;18.58;91.25;99924.93;108191;1276;74579;-84
2022/08/16 03:39:27;;;;;;;16.60;12.90;;;;;;;18.56;91.39;99928.18;108352;1276;62245;-84
2022/08/16 03:41:56;;;;;;;15.50;12.90;;;;;;;18.53;91.43;99930.90;105879;1276;62417;-84
2022/08/16 03:44:26;;;;;;;14.60;13.10;;;;;;;18.52;91.45;99931.83;105804;1276;74126;-85
2022/08/16 03:47:14;;;;;;;15.30;12.90;;;;;;;18.49;91.42;99931.95;106435;1276;71283;-83
2022/08/16 03:49:49;;;;;;;15.20;12.70;;;;;;;18.44;91.56;99930.43;106268;1276;72960;-84
2022/08/16 03:52:22;;;;;;;16.80;13.00;;;;;;;18.40;91.67;99929.81;105987;1277;60521;-84
2022/08/16 03:55:01;;;;;;;14.90;13.20;;;;;;;18.35;91.80;99929.85;105888;1277;61425;-84
2022/08/16 03:57:28;;;;;;;16.00;12.40;;;;;;;18.31;92.13;99933.11;106412;1276;73826;-84
2022/08/16 04:00:11;;;;;;;15.90;12.10;;;;;;;18.27;92.34;99934.89;105799;1276;71361;-85
2022/08/16 04:03:05;;;;;;;16.30;12.70;;;;;;;18.23;92.56;99934.02;105961;1277;74187;-85
2022/08/16 04:05:36;;;;;;;15.60;12.10;;;;;;;18.19;92.62;99936.37;106487;1276;62229;-85
2022/08/16 04:08:07;;;;;;;16.10;13.00;;;;;;;18.16;92.63;99942.55;107055;1276;60482;-85
2022/08/16 04:10:51;;;;;;;15.50;12.90;;;;;;;18.14;92.90;99948.05;106715;1276;73873;-85
2022/08/16 04:13:22;;;;;;;14.70;12.40;;;;;;;18.13;93.04;99952.80;106095;1277;72918;-85
2022/08/16 04:16:11;;;;;;;14.50;13.00;;;;;;;18.13;92.78;99953.88;106236;1276;73386;-86
2022/08/16 04:18:55;;;;;;;16.40;12.80;;;;;;;18.13;92.86;99954.69;106056;1276;62122;-84
2022/08/16 04:21:33;;;;;;;15.30;12.90;;;;;;;18.14;92.79;99957.34;105523;1276;60409;-85
2022/08/16 04:24:01;;;;;;;16.70;13.20;;;;;;;18.15;92.71;99958.10;106294;1276;74286;-84
2022/08/16 04:26:29;;;;;;;16.70;12.80;;;;;;;18.17;92.76;99954.70;106598;1276;72225;-85
2022/08/16 04:29:03;;;;;;;15.90;12.40;;;;;;;18.18;92.59;99958.04;105821;1276;71937;-85
2022/08/16 04:31:51;;;;;;;15.00;12.80;;;;;;;18.19;92.52;99956.13;106275;1276;61310;-85
2022/08/16 04:34:29;;;;;;;16.60;13.80;;;;;;;18.21;92.57;99959.23;105994;1276;60622;-85
2022/08/16 04:36:59;;;;;;;16.00;12.90;;;;;;;18.24;92.60;99960.83;105781;1276;74497;-85
2022/08/16 04:39:29;;;;;;;15.30;13.00;;;;;;;18.27;92.63;99964.73;105992;1276;71277;-85
2022/08/16 04:42:15;;;;;;;16.90;13.00;;;;;;;18.29;92.55;99963.54;106474;1276;73319;-85
2022/08/16 04:44:42;;;;;;;16.80;12.50;;;;;;;18.33;92.47;99963.17;106476;1276;63321;-85
2022/08/16 04:47:23;;;;;;;15.90;12.60;;;;;;;18.39;92.33;99965.40;105974;1276;60593;-83
2022/08/16 04:49:50;;;;;;;15.10;12.60;;;;;;;18.44;92.15;99972.09;105852;1276;74644;-82
2022/08/16 04:52:19;;;;;;;18.50;16.20;;;;;;;18.50;92.05;99976.48;106150;1276;72440;-84
2022/08/16 04:55:04;;;;;;;18.00;15.60;;;;;;;18.58;92.08;99980.05;106659;1276;72984;-83
2022/08/16 04:57:32;;;;;;;16.20;13.10;;;;;;;18.67;91.92;99979.17;106566;1276;62510;-81
2022/08/16 04:59:59;;;;;;;15.80;12.00;;;;;;;18.75;91.82;99983.65;106440;1276;61610;-81
2022/08/16 05:02:49;;;;;;;13.50;10.80;;;;;;;18.89;91.66;99985.75;105978;1277;77145;-81
2022/08/16 05:05:22;;;;;;;14.10;11.10;;;;;;;19.01;90.94;99987.74;106058;1276;71048;-81
2022/08/16 05:07:49;;;;;;;15.20;10.50;;;;;;;19.12;90.51;99987.46;105537;1277;74039;-81
2022/08/16 05:10:27;;;;;;;13.50;9.80;;;;;;;19.23;89.79;99987.17;106106;1277;62186;-80
2022/08/16 05:12:56;;;;;;;13.90;10.10;;;;;;;19.30;89.40;99986.83;106469;1276;60573;-81
2022/08/16 05:15:25;;;;;;;13.30;10.90;;;;;;;19.40;88.97;99991.46;107212;1276;73986;-81
2022/08/16 05:17:54;;;;;;;13.80;10.10;;;;;;;19.50;88.81;99986.05;105793;1276;71424;-80
2022/08/16 05:20:26;;;;;;;12.50;9.90;;;;;;;19.62;88.19;99990.50;106368;1276;73875;-81
2022/08/16 05:23:16;;;;;;;12.90;9.60;;;;;;;19.69;87.18;99988.27;106316;1277;65299;-80
2022/08/16 05:25:43;;;;;;;12.10;9.60;;;;;;;19.73;86.44;99984.89;105978;1277;60389;-80
2022/08/16 05:28:15;;;;;;;11.80;9.60;;;;;;;19.76;86.48;99989.43;106383;1276;74785;-81
2022/08/16 05:30:42;;;;;;;14.30;10.30;;;;;;;19.82;86.34;99993.33;106318;1276;71463;-81
2022/08/16 05:33:10;;;;;;;12.90;9.60;;;;;;;19.85;85.80;99990.23;106306;1276;71879;-81
2022/08/16 05:35:43;;;;;;;13.20;9.40;;;;;;;19.87;85.66;99996.55;105926;1276;62563;-80
2022/08/16 05:38:26;;;;;;;13.30;9.20;;;;;;;19.91;85.56;99998.91;106755;1276;60585;-80
2022/08/16 05:41:00;;;;;;;10.60;8.90;;;;;;;19.98;85.72;99997.67;106443;1276;74137;-81
2022/08/16 05:43:28;;;;;;;10.90;9.00;;;;;;;20.06;85.67;100003.15;106130;1276;71757;-82
2022/08/16 05:46:10;;;;;;;11.30;8.40;;;;;;;20.15;84.92;100003.92;105900;1276;72955;-79
2022/08/16 05:48:58;;;;;;;14.60;8.10;;;;;;;20.26;84.43;100004.06;105627;1276;63478;-79
2022/08/16 05:51:35;;;;;;;11.10;7.70;;;;;;;20.35;83.74;100013.25;106135;1276;60835;-81
2022/08/16 05:54:07;;;;;;;9.40;7.10;;;;;;;20.40;82.36;100018.68;106036;1278;75361;-80
2022/08/16 05:56:38;;;;;;;10.20;6.70;;;;;;;20.45;81.73;100019.33;106152;1276;71386;-81
2022/08/16 05:59:06;;;;;;;10.20;6.80;;;;;;;20.51;81.53;100024.76;106556;1276;72836;-80
2022/08/16 06:01:34;;;;;;;13.10;6.90;;;;;;;20.60;81.69;100029.77;106296;1276;63741;-80
2022/08/16 06:04:06;;;;;;;10.50;6.50;;;;;;;20.71;81.29;100025.96;105792;1276;60742;-80
2022/08/16 06:06:53;;;;;;;9.50;6.70;;;;;;;20.85;81.06;100022.98;106612;1276;76065;-84
2022/08/16 06:09:24;;;;;;;12.20;6.50;;;;;;;20.99;81.01;100020.60;107629;1277;71564;-85
2022/08/16 06:12:11;;;;;;;8.00;6.10;;;;;;;21.18;80.59;100020.83;107768;1276;73742;-84
2022/08/16 06:14:56;;;;;;;10.20;6.30;;;;;;;21.38;80.50;100024.27;105938;1276;63173;-84
2022/08/16 06:17:23;;;;;;;9.10;5.60;;;;;;;21.53;79.59;100021.55;106393;1276;60834;-84
2022/08/16 06:20:09;;;;;;;9.40;5.70;;;;;;;21.58;78.10;100021.13;106903;1276;73829;-82
2022/08/16 06:22:37;;;;;;;9.60;5.50;;;;;;;21.63;77.66;100029.68;106480;1277;72699;-85
2022/08/16 06:25:06;;;;;;;9.00;6.40;;;;;;;21.73;78.23;100031.05;105877;1276;72941;-84
2022/08/16 06:27:32;;;;;;;8.20;5.70;;;;;;;21.83;77.48;100032.98;106341;1277;62060;-83
2022/08/16 06:30:08;;;;;;;8.10;5.30;;;;;;;21.92;77.61;100038.34;106786;1276;60495;-84
2022/08/16 06:32:35;;;;;;;9.10;6.40;;;;;;;22.03;77.53;100036.59;106391;1277;74277;-83
2022/08/16 06:35:10;;;;;;;8.50;5.40;;;;;;;22.11;76.37;100035.73;106398;1277;71346;-83
2022/08/16 06:37:39;;;;;;;7.00;5.00;;;;;;;22.17;75.24;100039.75;106520;1276;71920;-84
2022/08/16 06:40:11;;;;;;;8.20;5.00;;;;;;;22.21;74.06;100044.46;106993;1276;63261;-84
2022/08/16 06:42:42;;;;;;;6.10;4.90;;;;;;;22.29;73.81;100048.88;106277;1276;60453;-83
2022/08/16 06:45:22;;;;;;;7.90;5.40;;;;;;;22.35;73.54;100051.15;106353;1277;73726;-83
2022/08/16 06:47:50;;;;;;;6.60;4.80;;;;;;;22.41;72.66;100051.75;106623;1276;71472;-83
2022/08/16 06:50:22;;;;;;;5.90;4.50;;;;;;;22.45;72.33;100052.41;106379;1277;74043;-82
2022/08/16 06:52:56;;;;;;;13.30;4.70;;;;;;;22.51;72.28;100051.88;106002;1277;62244;-83
2022/08/16 06:55:28;;;;;;;7.10;4.50;;;;;;;22.56;71.02;100054.09;106278;1277;60834;-83
2022/08/16 06:58:00;;;;;;;4.90;4.20;;;;;;;22.60;70.24;100057.54;107807;1276;74133;-84
2022/08/16 07:00:34;;;;;;;6.40;4.10;;;;;;;22.67;70.73;100056.40;106196;1277;71406;-82
2022/08/16 07:03:05;;;;;;;6.60;4.50;;;;;;;22.75;70.57;100057.81;105876;1277;73140;-82
2022/08/16 07:05:52;;;;;;;7.70;4.90;;;;;;;22.80;69.56;100063.48;106246;1276;63881;-83
2022/08/16 07:08:20;;;;;;;7.00;4.30;;;;;;;22.82;68.73;100065.10;106608;1277;61785;-82
2022/08/16 07:10:47;;;;;;;5.60;4.00;;;;;;;22.88;68.51;100070.72;107378;1277;75144;-82
2022/08/16 07:13:15;;;;;;;7.80;4.60;;;;;;;22.92;67.77;100071.42;106439;1276;73013;-82
2022/08/16 07:16:13;;;;;;;8.10;4.70;;;;;;;23.00;67.78;100070.61;106635;1276;73825;-82
2022/08/16 07:18:42;;;;;;;7.60;5.20;;;;;;;23.13;68.66;100077.65;106562;1276;62133;-84
2022/08/16 07:21:27;;;;;;;7.30;5.00;;;;;;;23.29;68.10;100074.09;105689;1266;61579;-82
2022/08/16 07:24:12;;;;;;;7.50;4.50;;;;;;;23.38;66.90;100073.63;106026;1274;74018;-83
2022/08/16 07:26:58;;;;;;;7.20;4.50;;;;;;;23.48;66.53;100072.84;106510;1274;71225;-83
2022/08/16 07:29:27;;;;;;;8.20;5.00;;;;;;;23.53;65.72;100072.55;105952;1274;73984;-83
2022/08/16 07:31:58;;;;;;;5.80;4.70;;;;;;;23.63;66.10;100075.61;106448;1275;61937;-84
2022/08/16 07:34:30;;;;;;;6.00;4.60;;;;;;;23.74;65.55;100080.71;106103;1274;61776;-82
2022/08/16 07:37:05;;;;;;;8.50;5.00;;;;;;;23.82;65.00;100080.48;106247;1274;73067;-83
2022/08/16 07:39:32;;;;;;;10.10;5.50;;;;;;;23.92;65.08;100082.42;106971;1274;70674;-83
2022/08/16 07:42:00;;;;;;;7.00;4.90;;;;;;;23.99;64.00;100082.56;106748;1277;72967;-84
2022/08/16 07:44:27;;;;;;;7.70;4.50;;;;;;;24.04;62.99;100088.07;107114;1274;62249;-88
2022/08/16 07:47:15;;;;;;;6.50;4.90;;;;;;;24.13;63.88;100085.20;107302;1274;61831;-82
2022/08/16 07:49:42;;;;;;;7.60;4.60;;;;;;;24.24;63.37;100082.73;107501;1277;74070;-83
2022/08/16 07:52:24;;;;;;;9.60;4.90;;;;;;;24.34;63.74;100085.60;107293;1274;71392;-82
2022/08/16 07:54:57;;;;;;;7.00;5.00;;;;;;;24.45;63.21;100094.20;107115;1277;72934;-82
2022/08/16 07:57:24;;;;;;;7.90;5.70;;;;;;;24.50;62.12;100099.18;107196;1274;63837;-82
2022/08/16 07:59:52;;;;;;;6.80;5.50;;;;;;;24.55;62.97;100100.83;106976;1274;60635;-82
2022/08/16 08:02:24;;;;;;;9.70;5.70;;;;;;;24.65;62.71;100101.67;106613;1274;73960;-82
2022/08/16 08:04:54;;;;;;;7.50;5.00;;;;;;;24.75;62.45;100102.63;106083;1274;71200;-82
2022/08/16 08:07:21;;;;;;;9.20;5.30;;;;;;;24.83;61.97;100103.91;105965;1276;72816;-82
2022/08/16 08:09:54;;;;;;;6.10;4.70;;;;;;;24.88;61.38;100103.06;105926;1277;63626;-82
2022/08/16 08:12:22;;;;;;;6.50;5.00;;;;;;;24.94;60.88;100100.06;105956;1274;60861;-81
2022/08/16 08:15:04;;;;;;;7.10;5.70;;;;;;;24.97;61.03;100100.73;106218;1274;75635;-82
2022/08/16 08:17:38;;;;;;;6.40;5.30;;;;;;;24.98;60.49;100103.02;106702;1274;71318;-81
2022/08/16 08:20:15;;;;;;;7.00;5.00;;;;;;;24.99;60.72;100098.99;106205;1277;73243;-81
2022/08/16 08:22:55;;;;;;;5.70;4.40;;;;;;;25.06;60.24;100097.30;105958;1276;60896;-82
2022/08/16 08:25:28;;;;;;;7.30;4.20;;;;;;;25.17;59.87;100098.83;106171;1276;60799;-81
2022/08/16 08:28:16;;;;;;;12.30;5.00;;;;;;;25.29;58.85;100101.66;106056;1277;76903;-84
2022/08/16 08:30:43;;;;;;;6.80;5.20;;;;;;;25.31;59.15;100104.74;105788;1273;72212;-81
2022/08/16 08:33:27;;;;;;;8.40;4.70;;;;;;;25.32;58.91;100108.91;106977;1274;76864;-81
2022/08/16 08:35:57;;;;;;;7.20;4.30;;;;;;;25.36;58.72;100107.20;106934;1274;60595;-82
2022/08/16 08:38:29;;;;;;;6.30;4.30;;;;;;;25.45;59.11;100110.45;106329;1274;60548;-81
2022/08/16 08:41:12;;;;;;;5.00;3.80;;;;;;;25.52;58.31;100109.34;106073;1274;72844;-81
2022/08/16 08:43:41;;;;;;;7.20;3.70;;;;;;;25.61;57.35;100116.73;106536;1274;70175;-81
2022/08/16 08:46:09;;;;;;;6.30;4.40;;;;;;;25.70;57.07;100118.09;105974;1275;73150;-81
2022/08/16 08:48:50;;;;;;;5.30;4.00;;;;;;;25.76;57.39;100113.35;105749;1276;61444;-81
2022/08/16 08:51:28;;;;;;;7.20;4.50;;;;;;;25.83;57.23;100112.13;106449;1274;60597;-81
2022/08/16 08:54:03;;;;;;;7.10;4.30;;;;;;;25.93;57.32;100112.67;106010;1276;72838;-81
2022/08/16 08:56:36;;;;;;;5.30;4.80;;;;;;;26.02;57.38;100116.70;106517;1274;71363;-81
2022/08/16 08:59:06;;;;;;;7.10;4.60;;;;;;;26.10;56.97;100120.17;105297;1277;73759;-80
2022/08/16 09:01:42;;;;;;;6.10;4.70;;;;;;;26.18;56.27;100119.35;106960;1276;60898;-81
2022/08/16 09:04:27;;;;;;;7.70;4.50;;;;;;;26.25;56.29;100119.59;105910;1276;60739;-81
2022/08/16 09:06:55;;;;;;;6.70;5.00;;;;;;;26.36;56.40;100125.52;105867;1274;74144;-81
2022/08/16 09:09:27;;;;;;;7.40;4.30;;;;;;;26.41;55.36;100122.82;105843;1274;71439;-82
2022/08/16 09:12:01;;;;;;;7.80;4.60;;;;;;;26.48;54.79;100118.71;106547;1276;72735;-82
2022/08/16 09:14:33;;;;;;;5.00;3.70;;;;;;;26.58;55.00;100116.83;105968;1276;62346;-81
2022/08/16 09:17:00;;;;;;;4.00;3.40;;;;;;;26.66;54.28;100118.17;105560;1276;61942;-81
2022/08/16 09:19:48;;;;;;;6.30;3.50;;;;;;;26.70;52.83;100117.14;106203;1274;77003;-81
2022/08/16 09:22:28;;;;;;;4.60;3.20;;;;;;;26.75;52.62;100113.73;106464;1276;71375;-80
2022/08/16 09:24:56;;;;;;;6.40;3.20;;;;;;;26.86;53.15;100115.45;106522;1276;72674;-80
2022/08/16 09:27:37;;;;;;;5.10;3.10;;;;;;;27.00;52.70;100119.31;106463;1276;60861;-82
2022/08/16 09:30:22;;;;;;;4.80;3.00;;;;;;;27.04;52.05;100117.98;107088;1274;61968;-81
2022/08/16 09:33:04;;;;;;;4.60;3.00;;;;;;;27.10;50.62;100120.39;106225;1275;74241;-82
2022/08/16 09:35:34;;;;;;;4.10;3.00;;;;;;;27.14;49.32;100122.70;105544;1277;70092;-83
2022/08/16 09:38:05;;;;;;;4.70;3.10;;;;;;;27.23;50.48;100121.15;106113;1275;72605;-82
2022/08/16 09:40:35;;;;;;;4.40;3.00;;;;;;;27.37;50.29;100121.59;106058;1276;61148;-81
2022/08/16 09:43:11;;;;;;;3.80;3.20;;;;;;;27.40;48.88;100124.20;105989;1276;61704;-81
2022/08/16 09:46:00;;;;;;;5.50;3.10;;;;;;;27.38;49.22;100122.41;106076;1274;76065;-81
2022/08/16 09:48:28;;;;;;;4.50;3.20;;;;;;;27.39;49.25;100116.94;106467;1274;70378;-80
2022/08/16 09:51:12;;;;;;;4.10;3.00;;;;;;;27.42;48.74;100125.98;105630;1274;72958;-83
2022/08/16 09:53:40;;;;;;;4.80;3.00;;;;;;;27.47;49.55;100123.27;106024;1274;60960;-81
2022/08/16 09:56:29;;;;;;;6.60;3.40;;;;;;;27.56;49.92;100123.43;105594;1275;61681;-81
2022/08/16 09:58:59;;;;;;;4.30;3.30;;;;;;;27.70;49.86;100122.92;105828;1276;74154;-82
2022/08/16 10:01:40;;;;;;;5.40;2.70;;;;;;;27.84;49.60;100122.76;104886;1276;1603326;-81
2022/08/16 10:04:13;;;;;;;4.50;2.90;;;;;;;27.91;47.69;100123.79;106203;1276;73687;-79
2022/08/16 10:07:02;;;;;;;3.50;2.60;;;;;;;27.84;47.85;100121.13;105563;1277;60641;-79
2022/08/16 10:09:45;;;;;;;5.50;3.10;;;;;;;27.77;48.00;100116.36;106121;1275;60682;-79
2022/08/16 10:15:12;;;;;;;3.50;2.60;;;;;;;27.71;48.22;100121.92;105838;1276;72383;-80
2022/08/16 10:17:45;;;;;;;5.20;2.70;;;;;;;27.78;48.29;100120.20;105769;1275;73538;-79
2022/08/16 10:20:31;;;;;;;4.50;2.70;;;;;;;27.93;48.12;100122.41;106200;1276;60689;-80
2022/08/16 10:23:00;;;;;;;5.60;3.20;;;;;;;27.95;46.87;100126.04;105924;1275;61713;-79
2022/08/16 10:25:38;;;;;;;3.60;2.80;;;;;;;27.94;46.20;100125.45;105957;1274;75393;-78
2022/08/16 10:28:27;;;;;;;4.30;2.70;;;;;;;27.93;46.96;100125.54;105965;1276;73875;-79
2022/08/16 10:30:59;;;;;;;4.90;3.00;;;;;;;28.02;47.48;100126.48;105425;1274;72180;-80
2022/08/16 10:33:32;;;;;;;4.80;2.90;;;;;;;28.14;47.90;100123.29;105897;1277;60475;-79
2022/08/16 10:36:04;;;;;;;5.40;3.00;;;;;;;28.32;47.80;100122.11;107082;1274;61364;-78
2022/08/16 10:38:36;;;;;;;4.60;2.70;;;;;;;28.51;46.59;100122.13;106191;1274;75432;-78
2022/08/16 10:41:06;;;;;;;5.20;2.50;;;;;;;28.58;45.65;100124.65;105722;1274;72428;-78
2022/08/16 10:43:37;;;;;;;5.10;2.70;;;;;;;28.69;44.93;100122.13;105722;1274;73318;-80
2022/08/16 10:46:11;;;;;;;4.50;3.00;;;;;;;28.77;44.42;100120.86;106081;1274;61760;-80
2022/08/16 10:48:58;;;;;;;5.10;2.80;;;;;;;28.82;44.35;100127.66;105581;1274;62009;-81
2022/08/16 10:51:26;;;;;;;4.40;2.70;;;;;;;28.92;44.79;100125.65;105749;1274;74123;-79
2022/08/16 10:54:13;;;;;;;5.70;2.90;;;;;;;29.09;44.70;100126.61;105458;1277;73130;-80
2022/08/16 10:56:56;;;;;;;4.80;2.80;;;;;;;29.17;44.34;100126.53;106823;1276;72550;-79
2022/08/16 10:59:24;;;;;;;4.70;3.00;;;;;;;29.27;44.41;100121.79;105420;1274;62526;-79
2022/08/16 11:02:10;;;;;;;3.90;2.80;;;;;;;29.40;44.28;100119.52;105736;1274;60383;-79
2022/08/16 11:04:58;;;;;;;4.70;3.10;;;;;;;29.65;44.31;100119.64;106019;1274;76701;-80
2022/08/16 11:07:35;;;;;;;5.60;3.40;;;;;;;29.94;43.98;100124.89;105856;1274;72938;-79
2022/08/16 11:10:30;;;;;;;4.20;3.10;;;;;;;30.15;42.52;100122.64;106411;1274;72645;-79
2022/08/16 11:13:24;;;;;;;5.30;3.00;;;;;;;30.37;43.30;100121.59;106082;1276;60714;-79
2022/08/16 11:16:11;;;;;;;2.90;2.50;;;;;;;30.63;41.37;100126.02;106250;1274;60406;-77
2022/08/16 11:18:59;;;;;;;4.90;2.70;;;;;;;30.73;40.55;100127.00;105476;1274;76777;-79
2022/08/16 11:21:42;;;;;;;3.80;2.50;;;;;;;30.88;41.31;100128.44;105557;1274;71365;-78
2022/08/16 11:24:29;;;;;;;5.00;2.90;;;;;;;31.16;41.31;100130.89;105662;1274;72644;-78
2022/08/16 11:27:07;;;;;;;3.50;2.50;;;;;;;31.28;39.71;100133.88;105718;1274;61683;-80
2022/08/16 11:29:55;;;;;;;3.30;2.40;;;;;;;31.10;37.70;100139.31;106269;1274;62424;-78
2022/08/16 11:32:26;;;;;;;5.10;2.40;;;;;;;30.95;37.66;100137.52;106030;1277;75112;-79
2022/08/16 11:35:02;;;;;;;4.20;2.50;;;;;;;30.85;38.26;100140.80;105666;1274;73170;-79
2022/08/16 11:37:42;;;;;;;3.20;2.50;;;;;;;30.80;38.17;100137.62;105745;1274;70340;-78
2022/08/16 11:40:37;;;;;;;3.90;2.70;;;;;;;30.68;37.36;100147.33;105780;1274;60555;-79
2022/08/16 11:43:05;;;;;;;4.20;2.50;;;;;;;30.51;38.27;100146.28;106022;1275;60587;-78
2022/08/16 11:45:35;;;;;;;4.20;2.50;;;;;;;30.30;38.68;100143.08;105838;1276;74195;-77
2022/08/16 11:48:03;;;;;;;3.30;2.40;;;;;;;30.21;39.78;100143.23;105622;1274;71961;-78
2022/08/16 11:50:32;;;;;;;6.20;2.50;;;;;;;30.37;40.12;100144.80;105525;1277;72923;-78
2022/08/16 11:53:05;;;;;;;3.90;2.50;;;;;;;30.55;38.90;100142.15;105661;1277;60540;-80
2022/08/16 11:55:36;;;;;;;3.30;2.20;;;;;;;30.62;38.50;100138.80;106065;1275;60370;-79